createdAt,value
2022-07-27T00:01:59.860Z,1.75
2022-07-27T00:04:31.555Z,1.58
2022-07-27T00:07:03.235Z,1.60
2022-07-27T00:09:34.949Z,1.88
2022-07-27T00:12:06.801Z,1.80
2022-07-27T00:14:38.452Z,1.60
2022-07-27T00:17:11.062Z,1.45
2022-07-27T00:19:42.703Z,2.03
2022-07-27T00:22:14.407Z,1.95
2022-07-27T00:24:46.089Z,1.50
2022-07-27T00:27:17.747Z,1.42
2022-07-27T00:29:49.843Z,1.60
2022-07-27T00:32:21.555Z,1.92
2022-07-27T00:34:53.217Z,1.90
2022-07-27T00:37:24.854Z,1.83
2022-07-27T00:39:57.130Z,1.77
2022-07-27T00:42:28.911Z,1.50
2022-07-27T00:45:00.558Z,2.22
2022-07-27T00:47:32.523Z,1.92
2022-07-27T00:50:04.933Z,1.52
2022-07-27T00:52:37.698Z,2.08
2022-07-27T00:55:09.614Z,1.63
2022-07-27T00:57:58.372Z,2.10
2022-07-27T01:00:30.931Z,1.50
2022-07-27T01:03:08.753Z,2.15
2022-07-27T01:05:43.293Z,2.00
2022-07-27T01:08:15.646Z,2.47
2022-07-27T01:10:47.394Z,1.98
2022-07-27T01:13:19.053Z,2.53
2022-07-27T01:15:50.875Z,2.05
2022-07-27T01:18:27.621Z,1.83
2022-07-27T01:21:00.043Z,1.98
2022-07-27T01:23:34.642Z,2.00
2022-07-27T01:26:07.860Z,1.92
2022-07-27T01:28:43.374Z,2.15
2022-07-27T01:31:15.143Z,1.98
2022-07-27T01:33:46.816Z,1.90
2022-07-27T01:36:18.614Z,2.83
2022-07-27T01:38:50.282Z,1.98
2022-07-27T01:41:24.551Z,2.00
2022-07-27T01:43:56.424Z,2.63
2022-07-27T01:46:28.138Z,2.00
2022-07-27T01:49:00.049Z,1.75
2022-07-27T01:51:31.815Z,2.47
2022-07-27T01:54:03.678Z,2.10
2022-07-27T01:56:35.421Z,2.13
2022-07-27T01:59:07.117Z,1.80
2022-07-27T02:01:38.965Z,1.98
2022-07-27T02:04:10.632Z,2.13
2022-07-27T02:06:42.373Z,2.40
2022-07-27T02:09:15.025Z,2.15
2022-07-27T02:12:05.540Z,2.00
2022-07-27T02:14:37.178Z,2.50
2022-07-27T02:17:09.764Z,2.58
2022-07-27T02:19:41.868Z,2.67
2022-07-27T02:22:14.227Z,2.40
2022-07-27T02:24:45.862Z,1.90
2022-07-27T02:27:17.700Z,2.25
2022-07-27T02:29:49.377Z,1.80
2022-07-27T02:32:21.265Z,2.50
2022-07-27T02:34:52.963Z,2.47
2022-07-27T02:37:25.023Z,2.83
2022-07-27T02:39:56.880Z,1.92
2022-07-27T02:42:28.659Z,2.42
2022-07-27T02:45:00.305Z,1.92
2022-07-27T02:47:32.539Z,2.70
2022-07-27T02:50:04.644Z,2.88
2022-07-27T02:52:36.797Z,2.40
2022-07-27T02:55:08.992Z,2.90
2022-07-27T02:57:41.347Z,2.60
2022-07-27T03:00:14.289Z,1.95
2022-07-27T03:02:49.234Z,2.42
2022-07-27T03:05:20.910Z,2.40
2022-07-27T03:07:52.539Z,2.80
2022-07-27T03:10:24.179Z,2.58
2022-07-27T03:12:55.802Z,2.30
2022-07-27T03:15:27.593Z,2.72
2022-07-27T03:17:59.262Z,2.30
2022-07-27T03:20:31.167Z,3.17
2022-07-27T03:23:02.862Z,2.80
2022-07-27T03:25:34.530Z,2.60
2022-07-27T03:28:06.177Z,2.42
2022-07-27T03:30:37.942Z,2.60
2022-07-27T03:33:09.650Z,2.22
2022-07-27T03:35:41.304Z,2.25
2022-07-27T03:38:13.005Z,2.33
2022-07-27T03:40:45.408Z,2.37
2022-07-27T03:43:17.071Z,2.20
2022-07-27T03:45:48.736Z,2.35
2022-07-27T03:48:20.641Z,2.60
2022-07-27T03:50:52.853Z,2.42
2022-07-27T03:53:24.501Z,2.22
2022-07-27T03:55:56.132Z,2.53
2022-07-27T03:58:27.762Z,2.58
2022-07-27T04:00:59.622Z,2.70
2022-07-27T04:03:31.333Z,2.60
2022-07-27T04:06:03.012Z,2.58
2022-07-27T04:08:34.636Z,2.28
2022-07-27T04:11:06.352Z,2.30
2022-07-27T04:13:39.459Z,2.63
2022-07-27T04:16:11.277Z,2.53
2022-07-27T04:18:43.084Z,2.58
2022-07-27T04:25:38.714Z,2.25
2022-07-27T04:28:10.490Z,2.65
2022-07-27T04:30:42.238Z,2.20
2022-07-27T04:33:14.452Z,2.55
2022-07-27T04:35:46.122Z,2.10
2022-07-27T04:38:17.885Z,2.65
2022-07-27T04:40:51.057Z,2.75
2022-07-27T04:43:24.424Z,2.60
2022-07-27T04:45:59.107Z,2.97
2022-07-27T04:48:32.826Z,2.45
2022-07-27T04:51:04.666Z,2.40
2022-07-27T04:53:37.663Z,2.25
2022-07-27T04:56:26.733Z,2.60
2022-07-27T04:58:58.531Z,2.47
2022-07-27T05:01:34.969Z,2.40
2022-07-27T05:04:07.027Z,2.28
2022-07-27T05:06:38.682Z,2.10
2022-07-27T05:09:10.768Z,1.92
2022-07-27T05:11:51.001Z,1.63
2022-07-27T05:14:23.775Z,1.60
2022-07-27T05:16:55.447Z,1.50
2022-07-27T05:19:40.382Z,1.52
2022-07-27T05:22:12.768Z,2.33
2022-07-27T05:24:45.679Z,1.73
2022-07-27T05:27:17.353Z,1.35
2022-07-27T05:29:49.756Z,2.10
2022-07-27T05:32:22.173Z,1.38
2022-07-27T05:34:53.826Z,2.05
2022-07-27T05:37:25.533Z,1.80
2022-07-27T05:39:57.298Z,1.33
2022-07-27T05:42:28.945Z,1.25
2022-07-27T05:45:00.776Z,1.52
2022-07-27T05:47:32.398Z,1.45
2022-07-27T05:50:04.745Z,1.63
2022-07-27T05:52:36.797Z,1.40
2022-07-27T05:55:09.210Z,1.40
2022-07-27T05:57:41.309Z,1.35
2022-07-27T06:00:13.303Z,1.10
2022-07-27T06:02:45.056Z,1.70
2022-07-27T06:05:17.459Z,1.02
2022-07-27T06:08:08.858Z,1.58
2022-07-27T06:10:41.243Z,1.40
2022-07-27T06:13:14.026Z,1.27
2022-07-27T06:15:45.799Z,1.10
2022-07-27T06:18:18.538Z,1.30
2022-07-27T06:20:51.281Z,1.60
2022-07-27T06:23:22.984Z,0.98
2022-07-27T06:25:55.362Z,1.20
2022-07-27T06:28:27.261Z,1.25
2022-07-27T06:30:59.683Z,0.95
2022-07-27T06:33:32.917Z,0.90
2022-07-27T06:36:05.834Z,0.85
2022-07-27T06:38:37.826Z,0.90
2022-07-27T06:41:09.662Z,0.80
2022-07-27T06:43:41.465Z,0.93
2022-07-27T06:46:14.269Z,0.52
2022-07-27T06:48:46.100Z,1.00
2022-07-27T06:51:17.865Z,0.80
2022-07-27T06:53:53.292Z,0.80
2022-07-27T06:56:25.080Z,0.90
2022-07-27T06:58:56.931Z,0.80
2022-07-27T07:01:28.882Z,0.65
2022-07-27T07:04:00.687Z,0.80
2022-07-27T07:06:32.509Z,0.73
2022-07-27T07:09:04.196Z,0.55
2022-07-27T07:11:35.909Z,0.43
2022-07-27T07:14:07.549Z,0.60
2022-07-27T07:16:39.275Z,0.50
2022-07-27T07:19:11.327Z,0.50
2022-07-27T07:21:43.177Z,0.38
2022-07-27T07:24:14.886Z,0.40
2022-07-27T07:26:46.562Z,0.40
2022-07-27T07:29:18.720Z,0.35
2022-07-27T07:31:50.574Z,0.40
2022-07-27T07:34:22.342Z,0.30
2022-07-27T07:36:53.985Z,0.40
2022-07-27T07:39:30.872Z,0.20
2022-07-27T07:42:03.229Z,0.35
2022-07-27T07:44:34.954Z,0.60
2022-07-27T07:47:06.864Z,0.13
2022-07-27T07:49:39.660Z,0.28
2022-07-27T07:52:11.781Z,0.38
2022-07-27T07:54:43.474Z,0.65
2022-07-27T07:57:15.149Z,0.20
2022-07-27T07:59:46.816Z,0.28
2022-07-27T08:02:21.033Z,0.38
2022-07-27T08:04:53.042Z,0.30
2022-07-27T08:07:24.689Z,0.25
2022-07-27T08:09:56.426Z,0.32
2022-07-27T08:12:28.336Z,0.40
2022-07-27T08:15:00.089Z,0.43
2022-07-27T08:17:31.744Z,0.30
2022-07-27T08:20:04.658Z,0.20
2022-07-27T08:22:38.274Z,0.40
2022-07-27T08:25:10.402Z,0.50
2022-07-27T08:27:42.982Z,0.28
2022-07-27T08:30:19.423Z,0.30
2022-07-27T08:32:52.869Z,0.35
2022-07-27T08:35:24.531Z,0.50
2022-07-27T08:37:56.284Z,0.20
2022-07-27T08:40:45.995Z,0.30
2022-07-27T08:43:24.789Z,0.40
2022-07-27T08:45:59.470Z,0.30
2022-07-27T08:48:31.878Z,0.40
2022-07-27T08:51:03.828Z,0.30
2022-07-27T08:53:53.404Z,0.13
2022-07-27T08:56:25.682Z,0.20
2022-07-27T08:58:57.727Z,0.35
2022-07-27T09:01:32.231Z,0.32
2022-07-27T09:04:04.103Z,0.28
2022-07-27T09:06:53.227Z,0.30
2022-07-27T09:09:26.138Z,0.20
2022-07-27T09:12:08.744Z,0.20
2022-07-27T09:14:41.312Z,0.40
2022-07-27T09:20:18.609Z,0.22
2022-07-27T09:22:54.715Z,0.60
2022-07-27T09:25:52.551Z,0.50
2022-07-27T09:28:29.167Z,0.20
2022-07-27T09:31:11.606Z,0.22
2022-07-27T09:33:43.884Z,0.30
2022-07-27T09:36:15.867Z,0.20
2022-07-27T09:39:08.271Z,0.35
2022-07-27T09:41:40.716Z,0.47
2022-07-27T09:44:31.190Z,0.40
2022-07-27T09:47:23.391Z,0.30
2022-07-27T09:49:58.262Z,0.30
2022-07-27T09:52:30.438Z,0.28
2022-07-27T09:55:06.136Z,0.30
2022-07-27T09:57:56.734Z,0.20
2022-07-27T10:00:28.426Z,0.30
2022-07-27T10:03:00.245Z,0.15
2022-07-27T10:05:31.935Z,0.50
2022-07-27T10:08:03.718Z,0.17
2022-07-27T10:10:35.372Z,0.50
2022-07-27T10:13:07.142Z,0.60
2022-07-27T10:15:40.914Z,0.40
2022-07-27T10:18:27.856Z,0.30
2022-07-27T10:21:07.920Z,0.30
2022-07-27T10:23:39.572Z,0.43
2022-07-27T10:26:14.407Z,0.40
2022-07-27T10:28:51.961Z,0.25
2022-07-27T10:31:25.749Z,0.20
2022-07-27T10:34:00.243Z,0.40
2022-07-27T10:36:31.861Z,0.40
2022-07-27T10:39:06.779Z,0.40
2022-07-27T10:41:40.372Z,0.28
2022-07-27T10:44:17.396Z,0.30
2022-07-27T10:47:10.469Z,0.50
2022-07-27T10:49:42.316Z,0.40
2022-07-27T10:52:40.299Z,0.47
2022-07-27T10:55:34.082Z,0.47
2022-07-27T10:58:15.065Z,0.52
2022-07-27T11:00:57.367Z,0.20
2022-07-27T11:03:33.035Z,0.50
2022-07-27T11:06:34.730Z,0.30
2022-07-27T11:10:00.217Z,0.40
2022-07-27T11:12:01.197Z,0.50
2022-07-27T11:15:02.627Z,0.40
2022-07-27T11:17:58.446Z,0.50
2022-07-27T11:20:28.734Z,0.50
2022-07-27T11:26:09.611Z,0.40
2022-07-27T11:28:41.424Z,0.57
2022-07-27T11:31:23.323Z,0.40
2022-07-27T11:34:04.634Z,0.60
2022-07-27T11:36:50.273Z,0.40
2022-07-27T11:39:58.827Z,0.57
2022-07-27T11:42:21.346Z,0.40
2022-07-27T11:44:55.025Z,0.60
2022-07-27T11:47:28.681Z,0.47
2022-07-27T11:50:07.415Z,0.40
2022-07-27T11:52:39.230Z,0.32
2022-07-27T11:55:13.562Z,0.40
2022-07-27T11:57:45.396Z,0.20
2022-07-27T12:00:17.218Z,0.85
2022-07-27T12:02:52.393Z,0.43
2022-07-27T12:05:24.192Z,0.68
2022-07-27T12:07:55.876Z,0.73
2022-07-27T12:10:27.694Z,0.63
2022-07-27T12:12:59.537Z,0.65
2022-07-27T12:15:47.028Z,0.60
2022-07-27T12:18:18.863Z,0.60
2022-07-27T12:20:51.942Z,0.57
2022-07-27T12:23:29.086Z,0.80
2022-07-27T12:26:17.368Z,0.52
2022-07-27T12:29:17.922Z,0.68
2022-07-27T12:31:49.862Z,0.60
2022-07-27T12:34:21.527Z,0.90
2022-07-27T12:36:53.138Z,0.60
2022-07-27T12:39:29.233Z,0.70
2022-07-27T12:42:05.411Z,0.88
2022-07-27T12:44:39.059Z,0.43
2022-07-27T12:47:29.180Z,0.57
2022-07-27T12:50:09.035Z,0.60
2022-07-27T12:52:53.700Z,0.68
2022-07-27T12:55:25.366Z,0.70
2022-07-27T12:57:57.519Z,0.50
2022-07-27T13:00:34.005Z,0.85
2022-07-27T13:03:06.097Z,0.70
2022-07-27T13:05:37.862Z,0.90
2022-07-27T13:08:09.816Z,0.90
2022-07-27T13:10:41.466Z,0.70
2022-07-27T13:13:13.567Z,0.82
2022-07-27T13:15:45.291Z,0.55
2022-07-27T13:18:21.388Z,0.73
2022-07-27T13:20:55.486Z,0.65
2022-07-27T13:23:27.637Z,0.77
2022-07-27T13:25:59.521Z,0.75
2022-07-27T13:28:31.231Z,0.80
2022-07-27T13:31:03.267Z,0.68
2022-07-27T13:33:34.939Z,0.68
2022-07-27T13:36:07.372Z,0.73
2022-07-27T13:38:39.043Z,0.80
2022-07-27T13:41:10.809Z,0.88
2022-07-27T13:43:42.471Z,0.90
2022-07-27T13:46:14.455Z,1.00
2022-07-27T13:48:46.341Z,0.68
2022-07-27T13:51:18.529Z,0.70
2022-07-27T13:53:50.222Z,0.95
2022-07-27T13:56:23.848Z,0.70
2022-07-27T13:58:56.797Z,0.90
2022-07-27T14:01:29.086Z,1.30
2022-07-27T14:04:02.916Z,0.88
2022-07-27T14:06:34.989Z,0.60
2022-07-27T14:09:07.674Z,0.80
2022-07-27T14:11:51.070Z,0.80
2022-07-27T14:14:26.728Z,0.63
2022-07-27T14:16:58.923Z,0.90
2022-07-27T14:19:30.609Z,0.80
2022-07-27T14:22:02.853Z,1.50
2022-07-27T14:24:37.947Z,1.40
2022-07-27T14:27:09.917Z,1.30
2022-07-27T14:29:41.629Z,1.35
2022-07-27T14:32:13.341Z,1.10
2022-07-27T14:34:45.016Z,0.90
2022-07-27T14:37:17.343Z,0.93
2022-07-27T14:39:49.031Z,1.27
2022-07-27T14:42:22.351Z,1.42
2022-07-27T14:44:54.005Z,2.72
2022-07-27T14:47:25.678Z,2.47
2022-07-27T14:49:57.546Z,1.35
2022-07-27T14:52:29.726Z,1.15
2022-07-27T14:55:01.957Z,0.90
2022-07-27T14:57:33.625Z,0.90
2022-07-27T15:00:10.359Z,0.90
2022-07-27T15:02:43.694Z,0.90
2022-07-27T15:05:15.353Z,1.30
2022-07-27T15:07:47.474Z,1.23
2022-07-27T15:10:20.498Z,1.10
2022-07-27T15:12:52.523Z,3.67
2022-07-27T15:15:26.653Z,4.25
2022-07-27T15:17:58.772Z,1.85
2022-07-27T15:20:30.540Z,1.95
2022-07-27T15:23:04.221Z,1.75
2022-07-27T15:25:36.061Z,2.95
2022-07-27T15:28:07.884Z,1.58
2022-07-27T15:30:39.640Z,1.10
2022-07-27T15:33:11.558Z,1.02
2022-07-27T15:35:43.234Z,0.77
2022-07-27T15:38:15.013Z,0.90
2022-07-27T15:40:47.506Z,1.00
2022-07-27T15:43:19.446Z,0.88
2022-07-27T15:45:51.353Z,0.80
2022-07-27T15:48:23.445Z,0.82
2022-07-27T15:50:55.290Z,1.00
2022-07-27T15:53:27.397Z,0.73
2022-07-27T15:55:59.921Z,0.77
2022-07-27T15:58:31.592Z,0.70
2022-07-27T16:01:03.527Z,0.80
2022-07-27T16:03:35.469Z,0.60
2022-07-27T16:06:07.972Z,0.80
2022-07-27T16:08:39.726Z,0.70
2022-07-27T16:11:11.369Z,0.70
2022-07-27T16:13:43.156Z,0.50
2022-07-27T16:16:30.465Z,1.00
2022-07-27T16:19:13.055Z,0.80
2022-07-27T16:21:55.539Z,0.88
2022-07-27T16:24:27.617Z,0.80
2022-07-27T16:27:00.447Z,0.90
2022-07-27T16:29:33.109Z,1.00
2022-07-27T16:32:04.895Z,1.10
2022-07-27T16:34:36.902Z,0.90
2022-07-27T16:37:08.906Z,1.05
2022-07-27T16:39:40.549Z,0.70
2022-07-27T16:42:12.445Z,0.90
2022-07-27T16:44:44.099Z,1.00
2022-07-27T16:47:16.253Z,0.88
2022-07-27T16:49:48.007Z,0.70
2022-07-27T16:52:20.186Z,1.83
2022-07-27T16:54:51.918Z,3.60
2022-07-27T16:57:26.747Z,1.70
2022-07-27T17:00:00.168Z,2.63
2022-07-27T17:02:33.454Z,13.85
2022-07-27T17:05:05.841Z,10.07
2022-07-27T17:07:37.501Z,7.55
2022-07-27T17:10:09.543Z,11.70
2022-07-27T17:12:41.221Z,7.97
2022-07-27T17:15:13.916Z,29.27
2022-07-27T17:17:45.577Z,19.75
2022-07-27T17:20:31.510Z,34.35
2022-07-27T17:23:07.339Z,38.38
2022-07-27T17:25:39.141Z,80.75
2022-07-27T17:28:11.127Z,37.95
2022-07-27T17:30:43.896Z,6.30
2022-07-27T17:33:15.661Z,2.35
2022-07-27T17:35:47.301Z,0.95
2022-07-27T17:38:20.041Z,0.57
2022-07-27T17:40:51.788Z,0.73
2022-07-27T17:43:23.499Z,0.55
2022-07-27T17:45:55.243Z,4.05
2022-07-27T17:48:27.138Z,4.63
2022-07-27T17:50:59.048Z,4.72
2022-07-27T17:53:30.800Z,5.13
2022-07-27T17:56:02.926Z,4.45
2022-07-27T17:58:34.599Z,3.33
2022-07-27T18:01:06.532Z,4.60
2022-07-27T18:03:38.423Z,2.78
2022-07-27T18:06:10.216Z,2.03
2022-07-27T18:08:41.873Z,1.60
2022-07-27T18:11:14.749Z,1.10
2022-07-27T18:13:47.101Z,0.98
2022-07-27T18:16:18.857Z,0.70
2022-07-27T18:18:50.647Z,0.60
2022-07-27T18:21:22.391Z,0.60
2022-07-27T18:23:54.147Z,0.60
2022-07-27T18:26:25.817Z,0.60
2022-07-27T18:28:57.753Z,0.65
2022-07-27T18:31:29.694Z,0.50
2022-07-27T18:34:01.957Z,0.55
2022-07-27T18:36:36.102Z,0.50
2022-07-27T18:39:07.736Z,0.60
2022-07-27T18:41:40.641Z,0.55
2022-07-27T18:44:12.382Z,0.57
2022-07-27T18:46:45.329Z,0.80
2022-07-27T18:49:17.453Z,0.55
2022-07-27T18:51:49.443Z,0.50
2022-07-27T18:54:21.532Z,0.73
2022-07-27T18:56:53.193Z,0.60
2022-07-27T18:59:24.862Z,0.70
2022-07-27T19:01:56.686Z,1.13
2022-07-27T19:04:28.432Z,0.60
2022-07-27T19:07:00.282Z,0.50
2022-07-27T19:09:31.998Z,0.32
2022-07-27T19:12:09.366Z,0.50
2022-07-27T19:14:41.404Z,0.57
2022-07-27T19:17:14.909Z,0.60
2022-07-27T19:19:46.912Z,0.60
2022-07-27T19:22:20.256Z,0.85
2022-07-27T19:24:54.949Z,0.47
2022-07-27T19:27:27.131Z,0.70
2022-07-27T19:29:58.908Z,0.75
2022-07-27T19:32:30.666Z,0.70
2022-07-27T19:35:02.406Z,0.82
2022-07-27T19:37:34.153Z,0.63
2022-07-27T19:40:33.686Z,0.68
2022-07-27T19:42:59.237Z,0.70
2022-07-27T19:45:31.363Z,0.68
2022-07-27T19:48:04.755Z,0.90
2022-07-27T19:50:36.417Z,0.88
2022-07-27T19:53:08.386Z,1.05
2022-07-27T19:55:40.030Z,0.73
2022-07-27T19:58:11.717Z,0.73
2022-07-27T20:00:44.572Z,0.90
2022-07-27T20:03:20.456Z,0.80
2022-07-27T20:05:52.137Z,0.77
2022-07-27T20:08:23.837Z,0.80
2022-07-27T20:10:56.050Z,0.77
2022-07-27T20:13:28.010Z,0.90
2022-07-27T20:15:59.811Z,0.97
2022-07-27T20:18:31.506Z,0.67
2022-07-27T20:21:03.226Z,0.77
2022-07-27T20:23:35.009Z,0.73
2022-07-27T20:26:06.768Z,1.20
2022-07-27T20:28:39.305Z,0.97
2022-07-27T20:31:11.088Z,1.10
2022-07-27T20:33:42.816Z,0.83
2022-07-27T20:36:14.505Z,0.73
2022-07-27T20:38:46.219Z,1.10
2022-07-27T20:41:17.977Z,0.70
2022-07-27T20:43:49.676Z,0.83
2022-07-27T20:46:24.568Z,0.93
2022-07-27T20:48:56.305Z,0.80
2022-07-27T20:51:28.176Z,0.73
2022-07-27T20:54:00.188Z,1.10
2022-07-27T20:56:31.897Z,0.87
2022-07-27T20:59:03.688Z,0.80
2022-07-27T21:01:40.744Z,0.90
2022-07-27T21:04:12.464Z,1.03
2022-07-27T21:06:44.092Z,0.90
2022-07-27T21:09:16.704Z,0.77
2022-07-27T21:11:48.602Z,0.80
2022-07-27T21:14:20.257Z,0.70
2022-07-27T21:16:51.960Z,0.77
2022-07-27T21:19:23.720Z,1.20
2022-07-27T21:21:55.622Z,0.80
2022-07-27T21:24:28.974Z,0.60
2022-07-27T21:27:04.650Z,1.00
2022-07-27T21:29:36.649Z,0.87
2022-07-27T21:32:08.333Z,0.77
2022-07-27T21:34:40.099Z,0.90
2022-07-27T21:37:11.773Z,1.40
2022-07-27T21:39:45.840Z,0.80
2022-07-27T21:42:17.543Z,0.87
2022-07-27T21:44:49.377Z,1.00
2022-07-27T21:47:21.136Z,0.80
2022-07-27T21:49:52.865Z,0.90
2022-07-27T21:52:24.804Z,0.80
2022-07-27T21:54:56.477Z,0.70
2022-07-27T21:57:28.523Z,0.80
2022-07-27T22:00:00.440Z,1.33
2022-07-27T22:02:32.076Z,1.20
2022-07-27T22:05:03.937Z,0.80
2022-07-27T22:07:35.603Z,0.80
2022-07-27T22:10:08.109Z,0.93
2022-07-27T22:12:39.780Z,0.70
2022-07-27T22:15:11.473Z,0.73
2022-07-27T22:17:46.245Z,1.30
2022-07-27T22:20:22.551Z,0.70
2022-07-27T22:22:54.339Z,0.97
2022-07-27T22:25:26.482Z,0.87
2022-07-27T22:27:58.131Z,0.80
2022-07-27T22:30:29.870Z,0.83
2022-07-27T22:33:01.556Z,0.80
2022-07-27T22:35:33.329Z,0.77
2022-07-27T22:38:05.114Z,0.77
2022-07-27T22:40:36.800Z,0.90
2022-07-27T22:43:08.754Z,1.03
2022-07-27T22:45:40.492Z,0.83
2022-07-27T22:48:12.141Z,0.90
2022-07-27T22:50:45.104Z,0.90
2022-07-27T22:53:16.960Z,1.00
2022-07-27T22:55:48.818Z,0.80
2022-07-27T22:58:20.494Z,0.93
2022-07-27T23:00:55.999Z,1.03
2022-07-27T23:03:31.021Z,0.87
2022-07-27T23:06:02.728Z,0.77
2022-07-27T23:08:34.345Z,1.00
2022-07-27T23:11:06.078Z,0.80
2022-07-27T23:13:37.770Z,1.00
2022-07-27T23:16:09.513Z,0.80
2022-07-27T23:18:41.200Z,0.83
2022-07-27T23:21:12.995Z,1.30
2022-07-27T23:23:53.342Z,0.80
2022-07-27T23:26:26.089Z,1.20
2022-07-27T23:28:58.058Z,1.20
2022-07-27T23:31:30.044Z,0.73
2022-07-27T23:34:01.770Z,0.70
2022-07-27T23:36:33.546Z,0.70
2022-07-27T23:39:05.307Z,1.03
2022-07-27T23:41:37.139Z,0.70
2022-07-27T23:44:08.778Z,1.00
2022-07-27T23:46:40.654Z,0.87
2022-07-27T23:49:13.043Z,0.90
2022-07-27T23:51:44.923Z,1.00
2022-07-27T23:54:17.398Z,0.80
2022-07-27T23:56:49.248Z,0.87
2022-07-27T23:59:20.854Z,0.77
